Silverthorne, CO

11:49 PM MDT del 03 Settembre 2015 (GMT -0600)
Kremmling | | Change Station
CLOSE
Current Station
Aeroporto
Location: Kremmling,
Altitudine: 7411 ft
Stazioni meteo nelle vicinanze

Alt. 7411 ft 40.05 °N, 106.37 °W | Updated 14 minutes ago

Sereno
Sereno
46 °F
Sembra 46 °F
N
0
Vento Variabile Vento da Nord

Oggi
Massima -- | Minima -- °F
--% Possibilità di precip.
Ieri
Massima -- | Minima -- °F
Precip. -- in
6:34 AM 7:34 PM
Gobba a levante, 63% visible
Pressione 30.21 in
Visibilità 7.0 miglia
Nuvole Sereno
Punto di rugiada 43 °F
Umidità 87%
Piovosità 0.43 in
Spessore del manto nevoso Non disponibile.
Raggi UV 0 fuori da 12
Polline 10.20 fuori da 12
Qualità dell'aria Non disponibile.
Flu Activity Non disponibile.
METAR K20V 040535Z AUTO 00000KT 7SM CLR 08/06 A3021 RMK AO2
Pressione 30.21 in
Visibilità 7.0 miglia
Nuvole Sereno
Punto di rugiada 43 °F
Umidità 87%
Piovosità 0.43 in
Spessore del manto nevoso Non disponibile.
Raggi UV 0 fuori da 12
Polline 10.20 fuori da 12
Qualità dell'aria Non disponibile.
Flu Activity Non disponibile.
METAR K20V 040535Z AUTO 00000KT 7SM CLR 08/06 A3021 RMK AO2

10-Day Weather Forecast

×

Almanac

Astronomia

Sep. 03, 2015 Alba Tramonto
Ora attuale
Crepuscolo civile
Crepuscolo nautico
Crepuscolo astronomico
Luna
Estensione della luce visibile
Lunghezza del giorno
Tomorrow will be .
, % of the Moon is Illuminated

Gli estremi di oggi

State Highs State Lows

Community

WunderPhotos

Upload Photos

1,852,129 foto caricate!

WunderBlogs® & News

Nearby

Qualità dell'aria

  Qualità dell'aria Indice AQ Inquinante
Not available.

Profondità neve

Stazione Profondità Altitudine

Attività sismica

Città  Distanza Mag. Data & Ora
Minimo Magnitudo Mostrato è 2.5.

Temperature delle acque costiere

Località Temperatura

Stations

Stazioni meteo nelle vicinanze

Ubicazione della stazione Temp. Raffreddamento del vento Punto di rugiada Umidità Vento Precip. Alt. Aggiornato Tipo